Time;durP1;ratioP1;P1;durP2;ratioP2;P2;SDS_P1;SDS_P2;PMS_P1;PMS_P2;Temp;Humidity;BMP_temperature;BMP_pressure;BME280_temperature;BME280_humidity;BME280_pressure;Samples;Min_cycle;Max_cycle;Signal;HPM_P1;HPM_P2
2022/08/03 00:01:54;;;;;;;;;;;;;;;;;;4991312;28;8416;-84
2022/08/03 00:04:20;;;;;;;;;;;;;;;;;;4992547;28;8720;-85
2022/08/03 00:06:45;;;;;;;;;;;;;;;;;;4992116;28;8414;-85
2022/08/03 00:09:10;;;;;;;;;;;;;;;;;;4991988;28;7018;-85
2022/08/03 00:11:36;;;;;;;;;;;;;;;;;;4991627;28;8591;-84
2022/08/03 00:14:04;;;;;;;;;;;;;;;;;;4991808;28;7154;-85
2022/08/03 00:16:29;;;;;;;;;;;;;;;;;;4990910;28;8444;-85
2022/08/03 00:18:55;;;;;;;;;;;;;;;;;;4992132;28;7145;-85
2022/08/03 00:21:20;;;;;;;;;;;;;;;;;;4991747;28;7052;-85
2022/08/03 00:23:46;;;;;;;;;;;;;;;;;;4992277;28;8519;-85
2022/08/03 00:26:11;;;;;;;;;;;;;;;;;;4992289;28;8383;-85
2022/08/03 00:28:37;;;;;;;;;;;;;;;;;;4991214;28;7187;-86
2022/08/03 00:31:02;;;;;;;;;;;;;;;;;;4991577;28;7348;-87
2022/08/03 00:33:28;;;;;;;;;;;;;;;;;;4991912;28;8313;-84
2022/08/03 00:35:53;;;;;;;;;;;;;;;;;;4991407;28;8449;-85
2022/08/03 00:38:19;;;;;;;;;;;;;;;;;;4991400;28;8309;-85
2022/08/03 00:40:44;;;;;;;;;;;;;;;;;;4991021;28;8351;-86
2022/08/03 00:43:10;;;;;;;;;;;;;;;;;;4991144;28;8277;-85
2022/08/03 00:45:37;;;;;;;;;;;;;;;;;;4991186;28;8518;-85
2022/08/03 00:48:03;;;;;;;;;;;;;;;;;;4990672;28;8311;-85
2022/08/03 00:50:33;;;;;;;;;;;;;;;;;;4990673;28;7176;-86
2022/08/03 00:53:00;;;;;;;;;;;;;;;;;;4991545;28;7048;-86
2022/08/03 00:55:26;;;;;;;;;;;;;;;;;;4991313;28;8522;-85
2022/08/03 00:57:53;;;;;;;;;;;;;;;;;;4990911;28;7854;-85
2022/08/03 01:00:24;;;;;;;;;;;;;;;;;;4990900;28;7160;-86
2022/08/03 01:02:49;;;;;;;;;;;;;;;;;;4992759;28;7184;-85
2022/08/03 01:05:15;;;;;;;;;;;;;;;;;;4992428;28;8509;-85
2022/08/03 01:07:53;;;;;;;;;;;;;;;;;;4992325;28;8581;-84
2022/08/03 01:10:18;;;;;;;;;;;;;;;;;;4992130;28;7426;-85
2022/08/03 01:13:09;;;;;;;;;;;;;;;;;;4991768;28;7336;-85
2022/08/03 01:15:43;;;;;;;;;;;;;;;;;;4991736;28;7471;-87
2022/08/03 01:18:17;;;;;;;;;;;;;;;;;;4992844;28;7171;-86
2022/08/03 01:20:46;;;;;;;;;;;;;;;;;;4991698;28;7060;-86
2022/08/03 01:23:17;;;;;;;;;;;;;;;;;;4992162;28;7351;-87
2022/08/03 01:25:45;;;;;;;;;;;;;;;;;;4991957;28;7034;-86
2022/08/03 01:28:14;;;;;;;;;;;;;;;;;;4991860;28;8293;-86
2022/08/03 01:30:43;;;;;;;;;;;;;;;;;;4991474;28;7170;-86
2022/08/03 01:33:16;;;;;;;;;;;;;;;;;;4991887;28;8354;-85
2022/08/03 01:35:45;;;;;;;;;;;;;;;;;;4991946;28;7824;-86
2022/08/03 01:38:14;;;;;;;;;;;;;;;;;;4991323;28;8433;-86
2022/08/03 01:40:43;;;;;;;;;;;;;;;;;;4991519;28;8633;-86
2022/08/03 01:43:11;;;;;;;;;;;;;;;;;;4991774;28;7219;-86
2022/08/03 01:45:38;;;;;;;;;;;;;;;;;;4991177;28;8599;-86
2022/08/03 01:48:06;;;;;;;;;;;;;;;;;;4991920;28;7127;-85
2022/08/03 01:50:33;;;;;;;;;;;;;;;;;;4991710;28;8477;-86
2022/08/03 01:52:59;;;;;;;;;;;;;;;;;;4991640;28;7207;-86
2022/08/03 01:55:28;;;;;;;;;;;;;;;;;;4991714;28;7185;-85
2022/08/03 01:57:56;;;;;;;;;;;;;;;;;;4991398;28;7034;-86
2022/08/03 02:00:23;;;;;;;;;;;;;;;;;;4992522;28;8491;-86
2022/08/03 02:02:50;;;;;;;;;;;;;;;;;;4991895;28;7263;-86
2022/08/03 02:05:19;;;;;;;;;;;;;;;;;;4991438;28;8390;-86
2022/08/03 02:07:46;;;;;;;;;;;;;;;;;;4991075;28;6820;-87
2022/08/03 02:10:15;;;;;;;;;;;;;;;;;;4991360;28;7046;-86
2022/08/03 02:12:44;;;;;;;;;;;;;;;;;;4990065;28;7041;-87
2022/08/03 02:15:11;;;;;;;;;;;;;;;;;;4990190;28;7179;-84
2022/08/03 02:17:37;;;;;;;;;;;;;;;;;;4990488;28;8587;-84
2022/08/03 02:20:04;;;;;;;;;;;;;;;;;;4990569;28;7199;-85
2022/08/03 02:22:32;;;;;;;;;;;;;;;;;;4990938;28;7169;-85
2022/08/03 02:24:58;;;;;;;;;;;;;;;;;;4994308;28;8421;-84
2022/08/03 02:27:26;;;;;;;;;;;;;;;;;;4995091;28;7212;-84
2022/08/03 02:29:55;;;;;;;;;;;;;;;;;;4994790;28;7189;-84
2022/08/03 02:32:28;;;;;;;;;;;;;;;;;;4994973;28;7063;-84
2022/08/03 02:34:56;;;;;;;;;;;;;;;;;;4995616;28;8456;-84
2022/08/03 02:37:25;;;;;;;;;;;;;;;;;;4994848;28;7243;-85
2022/08/03 02:39:57;;;;;;;;;;;;;;;;;;4995474;28;7043;-84
2022/08/03 02:42:24;;;;;;;;;;;;;;;;;;4994986;28;8976;-85
2022/08/03 02:44:53;;;;;;;;;;;;;;;;;;4994735;28;7156;-85
2022/08/03 02:47:20;;;;;;;;;;;;;;;;;;4994955;28;7480;-84
2022/08/03 02:49:48;;;;;;;;;;;;;;;;;;4994500;28;8454;-84
2022/08/03 02:52:14;;;;;;;;;;;;;;;;;;4994773;28;7161;-85
2022/08/03 02:54:40;;;;;;;;;;;;;;;;;;4994614;28;8476;-84
2022/08/03 02:57:09;;;;;;;;;;;;;;;;;;4994580;28;7233;-84
2022/08/03 02:59:36;;;;;;;;;;;;;;;;;;4994982;28;7019;-84
2022/08/03 03:02:03;;;;;;;;;;;;;;;;;;4995037;28;7205;-84
2022/08/03 03:04:30;;;;;;;;;;;;;;;;;;4994902;28;8446;-85
2022/08/03 03:06:57;;;;;;;;;;;;;;;;;;4994650;28;7121;-85
2022/08/03 03:09:22;;;;;;;;;;;;;;;;;;4994389;28;7302;-84
2022/08/03 03:11:50;;;;;;;;;;;;;;;;;;4994079;28;8393;-84
2022/08/03 03:14:18;;;;;;;;;;;;;;;;;;4994389;28;7048;-84
2022/08/03 03:16:46;;;;;;;;;;;;;;;;;;4994141;28;7041;-85
2022/08/03 03:19:14;;;;;;;;;;;;;;;;;;4994237;28;8504;-85
2022/08/03 03:21:42;;;;;;;;;;;;;;;;;;4994032;28;7372;-84
2022/08/03 03:24:09;;;;;;;;;;;;;;;;;;4994549;28;9401;-84
2022/08/03 03:26:35;;;;;;;;;;;;;;;;;;4993547;28;7180;-84
2022/08/03 03:29:01;;;;;;;;;;;;;;;;;;4992654;28;8602;-84
2022/08/03 03:31:27;;;;;;;;;;;;;;;;;;4993580;28;8427;-84
2022/08/03 03:33:53;;;;;;;;;;;;;;;;;;4992407;28;7131;-84
2022/08/03 03:36:19;;;;;;;;;;;;;;;;;;4992661;28;7154;-85
2022/08/03 03:38:44;;;;;;;;;;;;;;;;;;4993190;28;7337;-84
2022/08/03 03:41:10;;;;;;;;;;;;;;;;;;4992134;28;7128;-85
2022/08/03 03:43:36;;;;;;;;;;;;;;;;;;4993046;28;8634;-84
2022/08/03 03:46:01;;;;;;;;;;;;;;;;;;4991975;28;8670;-85
2022/08/03 03:48:27;;;;;;;;;;;;;;;;;;4992440;28;7250;-84
2022/08/03 03:50:53;;;;;;;;;;;;;;;;;;4992604;28;7019;-83
2022/08/03 03:53:18;;;;;;;;;;;;;;;;;;4991817;28;7627;-85
2022/08/03 03:55:44;;;;;;;;;;;;;;;;;;4992075;28;7230;-85
2022/08/03 03:58:09;;;;;;;;;;;;;;;;;;4991926;28;7315;-84
2022/08/03 04:00:35;;;;;;;;;;;;;;;;;;4992248;28;8561;-84
2022/08/03 04:03:00;;;;;;;;;;;;;;;;;;4992036;28;8661;-84
2022/08/03 04:11:14;;;;;;;;;;;;;;;;;;4978391;28;6920;-84
2022/08/03 04:13:44;;;;;;;;;;;;;;;;;;4963105;28;7185;-84
2022/08/03 04:16:11;;;;;;;;;;;;;;;;;;4936690;28;19005;-84
2022/08/03 04:18:39;;;;;;;;;;;;;;;;;;4993369;28;7055;-85
2022/08/03 04:21:13;;;;;;;;;;;;;;;;;;4992852;28;7070;-85
2022/08/03 04:23:43;;;;;;;;;;;;;;;;;;4992703;28;9658;-85
2022/08/03 04:26:12;;;;;;;;;;;;;;;;;;4992947;28;8398;-85
2022/08/03 04:28:40;;;;;;;;;;;;;;;;;;4992891;28;7058;-85
2022/08/03 04:31:07;;;;;;;;;;;;;;;;;;4993283;28;8480;-85
2022/08/03 04:33:34;;;;;;;;;;;;;;;;;;4992923;28;8558;-85
2022/08/03 04:36:03;;;;;;;;;;;;;;;;;;4993051;28;7141;-86
2022/08/03 04:38:35;;;;;;;;;;;;;;;;;;4989902;28;8496;-86
2022/08/03 04:41:02;;;;;;;;;;;;;;;;;;4969470;28;8470;-85
2022/08/03 04:43:32;;;;;;;;;;;;;;;;;;4971236;28;8625;-85
2022/08/03 04:45:59;;;;;;;;;;;;;;;;;;4971447;28;7183;-81
2022/08/03 04:48:25;;;;;;;;;;;;;;;;;;4972667;28;7173;-81
2022/08/03 04:50:52;;;;;;;;;;;;;;;;;;4972919;28;8455;-82
2022/08/03 04:53:18;;;;;;;;;;;;;;;;;;4976207;28;7341;-82
2022/08/03 04:55:43;;;;;;;;;;;;;;;;;;4966608;28;8453;-80
2022/08/03 04:58:09;;;;;;;;;;;;;;;;;;4969317;28;7186;-82
2022/08/03 05:00:34;;;;;;;;;;;;;;;;;;4972987;28;8420;-82
2022/08/03 05:03:00;;;;;;;;;;;;;;;;;;4972900;28;8798;-82
2022/08/03 05:05:25;;;;;;;;;;;;;;;;;;4974244;28;7388;-81
2022/08/03 05:07:51;;;;;;;;;;;;;;;;;;4967847;28;8428;-80
2022/08/03 05:10:16;;;;;;;;;;;;;;;;;;4971129;28;7345;-81
2022/08/03 05:12:42;;;;;;;;;;;;;;;;;;4972558;28;7020;-80
2022/08/03 05:15:08;;;;;;;;;;;;;;;;;;4967166;28;8323;-81
2022/08/03 05:17:33;;;;;;;;;;;;;;;;;;4961969;28;7126;-82
2022/08/03 05:19:59;;;;;;;;;;;;;;;;;;4975790;28;8496;-81
2022/08/03 05:22:25;;;;;;;;;;;;;;;;;;4975825;28;7277;-80
2022/08/03 05:24:50;;;;;;;;;;;;;;;;;;4975393;28;7094;-81
2022/08/03 05:27:19;;;;;;;;;;;;;;;;;;4972732;28;8958;-80
2022/08/03 05:29:45;;;;;;;;;;;;;;;;;;4958861;28;8982;-81
2022/08/03 05:32:11;;;;;;;;;;;;;;;;;;4970174;28;7071;-81
2022/08/03 05:34:37;;;;;;;;;;;;;;;;;;4973775;28;8925;-81
2022/08/03 05:37:02;;;;;;;;;;;;;;;;;;4989848;28;7143;-81
2022/08/03 05:39:28;;;;;;;;;;;;;;;;;;4973988;28;8397;-82
2022/08/03 05:41:53;;;;;;;;;;;;;;;;;;4973423;28;7271;-80
2022/08/03 05:44:19;;;;;;;;;;;;;;;;;;4989632;28;8756;-82
2022/08/03 05:46:44;;;;;;;;;;;;;;;;;;4989932;28;7123;-81
2022/08/03 05:49:10;;;;;;;;;;;;;;;;;;4973271;28;7050;-81
2022/08/03 05:51:36;;;;;;;;;;;;;;;;;;4989267;28;6835;-81
2022/08/03 05:54:02;;;;;;;;;;;;;;;;;;4974629;28;7066;-83
2022/08/03 05:56:27;;;;;;;;;;;;;;;;;;4987373;28;8446;-84
2022/08/03 05:58:53;;;;;;;;;;;;;;;;;;4964789;28;8475;-83
2022/08/03 06:01:22;;;;;;;;;;;;;;;;;;4974668;28;8375;-84
2022/08/03 06:03:48;;;;;;;;;;;;;;;;;;4979122;28;8663;-74
2022/08/03 06:06:14;;;;;;;;;;;;;;;;;;4965590;28;8620;-76
2022/08/03 06:08:41;;;;;;;;;;;;;;;;;;4959345;28;7204;-77
2022/08/03 06:11:07;;;;;;;;;;;;;;;;;;4953865;28;8946;-77
2022/08/03 06:13:33;;;;;;;;;;;;;;;;;;4958016;28;7084;-78
2022/08/03 06:15:59;;;;;;;;;;;;;;;;;;4956249;28;7271;-78
2022/08/03 06:18:24;;;;;;;;;;;;;;;;;;4954478;28;8433;-77
2022/08/03 06:20:50;;;;;;;;;;;;;;;;;;4955344;29;8442;-78
2022/08/03 06:23:16;;;;;;;;;;;;;;;;;;4962599;28;8583;-77
2022/08/03 06:25:42;;;;;;;;;;;;;;;;;;4971045;28;9121;-77
2022/08/03 06:28:08;;;;;;;;;;;;;;;;;;4956811;28;7183;-86
2022/08/03 06:30:35;;;;;;;;;;;;;;;;;;4954500;29;6900;-87
2022/08/03 06:33:01;;;;;;;;;;;;;;;;;;4955498;29;8855;-85
2022/08/03 06:35:26;;;;;;;;;;;;;;;;;;4955534;29;8840;-85
2022/08/03 06:37:53;;;;;;;;;;;;;;;;;;4971722;28;7050;-86
2022/08/03 06:40:20;;;;;;;;;;;;;;;;;;4969502;28;8702;-86
2022/08/03 06:42:46;;;;;;;;;;;;;;;;;;4973850;28;7034;-86
2022/08/03 06:45:12;;;;;;;;;;;;;;;;;;4973586;28;7212;-86
2022/08/03 06:47:39;;;;;;;;;;;;;;;;;;4974192;28;7071;-86
2022/08/03 06:50:05;;;;;;;;;;;;;;;;;;4967479;28;7171;-86
2022/08/03 06:52:31;;;;;;;;;;;;;;;;;;4968959;28;8553;-86
2022/08/03 06:54:57;;;;;;;;;;;;;;;;;;4965299;28;7028;-86
2022/08/03 06:57:23;;;;;;;;;;;;;;;;;;4973554;28;7265;-87
2022/08/03 06:59:48;;;;;;;;;;;;;;;;;;4971495;28;8423;-86
2022/08/03 07:02:14;;;;;;;;;;;;;;;;;;4971999;28;8538;-86
2022/08/03 07:04:39;;;;;;;;;;;;;;;;;;4973654;28;8548;-86
2022/08/03 07:07:05;;;;;;;;;;;;;;;;;;4973519;28;8565;-86
2022/08/03 07:09:30;;;;;;;;;;;;;;;;;;4974240;28;7183;-86
2022/08/03 07:11:56;;;;;;;;;;;;;;;;;;4977559;28;7120;-86
2022/08/03 07:14:22;;;;;;;;;;;;;;;;;;4976910;28;8449;-86
2022/08/03 07:16:47;;;;;;;;;;;;;;;;;;4977675;28;8445;-86
2022/08/03 07:19:13;;;;;;;;;;;;;;;;;;4978254;28;8498;-86
2022/08/03 07:21:38;;;;;;;;;;;;;;;;;;4971608;28;8822;-87
2022/08/03 07:24:04;;;;;;;;;;;;;;;;;;4967397;28;8519;-86
2022/08/03 07:26:29;;;;;;;;;;;;;;;;;;4958504;28;8520;-86
2022/08/03 07:28:55;;;;;;;;;;;;;;;;;;4958547;28;7305;-87
2022/08/03 07:31:20;;;;;;;;;;;;;;;;;;4963372;28;7168;-87
2022/08/03 07:33:46;;;;;;;;;;;;;;;;;;4968875;28;8370;-87
2022/08/03 07:36:11;;;;;;;;;;;;;;;;;;4977363;28;7289;-87
2022/08/03 07:38:36;;;;;;;;;;;;;;;;;;4973576;28;8554;-87
2022/08/03 07:41:02;;;;;;;;;;;;;;;;;;4972825;28;8754;-87
2022/08/03 07:43:28;;;;;;;;;;;;;;;;;;4989270;28;7233;-86
2022/08/03 07:45:54;;;;;;;;;;;;;;;;;;4957919;28;8811;-87
2022/08/03 07:48:19;;;;;;;;;;;;;;;;;;4960396;28;7393;-86
2022/08/03 07:50:45;;;;;;;;;;;;;;;;;;4968925;28;8715;-86
2022/08/03 07:53:10;;;;;;;;;;;;;;;;;;4977883;28;8471;-87
2022/08/03 07:55:36;;;;;;;;;;;;;;;;;;4971825;28;8532;-81
2022/08/03 07:58:04;;;;;;;;;;;;;;;;;;4970960;28;8605;-72
2022/08/03 08:00:31;;;;;;;;;;;;;;;;;;4957971;28;8862;-75
2022/08/03 08:02:56;;;;;;;;;;;;;;;;;;4957479;28;8573;-74
2022/08/03 08:05:22;;;;;;;;;;;;;;;;;;4957601;28;8488;-75
2022/08/03 08:07:48;;;;;;;;;;;;;;;;;;4962878;28;8491;-80
2022/08/03 08:10:13;;;;;;;;;;;;;;;;;;4981752;28;8380;-79
2022/08/03 08:12:39;;;;;;;;;;;;;;;;;;4964294;28;8784;-82
2022/08/03 08:15:05;;;;;;;;;;;;;;;;;;4970895;28;8743;-81
2022/08/03 08:17:30;;;;;;;;;;;;;;;;;;4966803;28;8868;-79
2022/08/03 08:19:56;;;;;;;;;;;;;;;;;;4979233;28;7483;-76
2022/08/03 08:22:22;;;;;;;;;;;;;;;;;;4964220;28;7329;-76
2022/08/03 08:24:48;;;;;;;;;;;;;;;;;;4968949;28;7117;-77
2022/08/03 08:27:14;;;;;;;;;;;;;;;;;;4967902;28;7262;-80
2022/08/03 08:29:40;;;;;;;;;;;;;;;;;;4959661;28;8582;-80
2022/08/03 08:32:05;;;;;;;;;;;;;;;;;;4966698;28;8561;-81
2022/08/03 08:34:31;;;;;;;;;;;;;;;;;;4983503;28;8944;-82
2022/08/03 08:36:57;;;;;;;;;;;;;;;;;;4955628;28;7221;-81
2022/08/03 08:39:23;;;;;;;;;;;;;;;;;;4955883;28;8877;-82
2022/08/03 08:41:51;;;;;;;;;;;;;;;;;;4956488;28;7254;-82
2022/08/03 08:44:17;;;;;;;;;;;;;;;;;;4956720;28;8609;-83
2022/08/03 08:46:44;;;;;;;;;;;;;;;;;;4956069;28;8571;-83
2022/08/03 08:49:11;;;;;;;;;;;;;;;;;;4956323;28;8009;-83
2022/08/03 08:51:39;;;;;;;;;;;;;;;;;;4955903;28;8922;-82
2022/08/03 08:54:06;;;;;;;;;;;;;;;;;;4957161;28;7266;-81
2022/08/03 08:56:32;;;;;;;;;;;;;;;;;;4971737;28;7287;-83
2022/08/03 08:58:59;;;;;;;;;;;;;;;;;;4961854;28;8544;-80
2022/08/03 09:01:25;;;;;;;;;;;;;;;;;;4975559;28;9310;-82
2022/08/03 09:03:52;;;;;;;;;;;;;;;;;;4974016;28;8489;-83
2022/08/03 09:06:21;;;;;;;;;;;;;;;;;;4969276;28;8839;-82
2022/08/03 09:08:47;;;;;;;;;;;;;;;;;;4956770;28;7061;-82
2022/08/03 09:11:12;;;;;;;;;;;;;;;;;;4956280;28;7239;-82
2022/08/03 09:13:38;;;;;;;;;;;;;;;;;;4955866;28;8550;-83
2022/08/03 09:16:14;;;;;;;;;;;;;;;;;;4956191;28;8478;-82
2022/08/03 09:18:42;;;;;;;;;;;;;;;;;;4956276;28;8819;-82
2022/08/03 09:21:17;;;;;;;;;;;;;;;;;;4956539;28;8827;-82
2022/08/03 09:23:43;;;;;;;;;;;;;;;;;;4955909;28;7547;-82
2022/08/03 09:26:09;;;;;;;;;;;;;;;;;;4956418;28;7149;-82
2022/08/03 09:28:35;;;;;;;;;;;;;;;;;;4955885;28;7241;-82
2022/08/03 09:31:00;;;;;;;;;;;;;;;;;;4955103;28;7580;-82
2022/08/03 09:33:26;;;;;;;;;;;;;;;;;;4965000;28;8478;-83
2022/08/03 09:35:51;;;;;;;;;;;;;;;;;;4971415;28;8377;-81
2022/08/03 09:38:22;;;;;;;;;;;;;;;;;;4961104;28;8509;-81
2022/08/03 09:40:49;;;;;;;;;;;;;;;;;;4966739;28;8420;-83
2022/08/03 09:43:14;;;;;;;;;;;;;;;;;;4968311;28;8408;-82
2022/08/03 09:45:41;;;;;;;;;;;;;;;;;;4964529;28;8595;-83
2022/08/03 09:48:20;;;;;;;;;;;;;;;;;;4958433;28;8570;-81
2022/08/03 09:50:53;;;;;;;;;;;;;;;;;;4965784;28;7223;-81
2022/08/03 09:53:19;;;;;;;;;;;;;;;;;;4962063;28;8682;-81
2022/08/03 09:55:55;;;;;;;;;;;;;;;;;;4967261;28;8548;-85
2022/08/03 09:58:22;;;;;;;;;;;;;;;;;;4972440;28;7174;-84
2022/08/03 10:00:52;;;;;;;;;;;;;;;;;;4974195;28;9376;-85
2022/08/03 10:03:18;;;;;;;;;;;;;;;;;;4974455;28;8428;-85
2022/08/03 10:05:45;;;;;;;;;;;;;;;;;;4974880;28;7271;-84
2022/08/03 10:08:14;;;;;;;;;;;;;;;;;;4974501;28;8963;-83
2022/08/03 10:10:45;;;;;;;;;;;;;;;;;;4974567;28;7288;-84
2022/08/03 10:13:13;;;;;;;;;;;;;;;;;;4973911;28;7507;-84
2022/08/03 10:15:39;;;;;;;;;;;;;;;;;;4974164;28;8685;-84
2022/08/03 10:18:06;;;;;;;;;;;;;;;;;;4974350;28;8576;-84
2022/08/03 10:20:35;;;;;;;;;;;;;;;;;;4990540;28;8609;-84
2022/08/03 10:23:01;;;;;;;;;;;;;;;;;;4974117;28;7261;-84
2022/08/03 10:25:29;;;;;;;;;;;;;;;;;;4974390;28;7243;-85
2022/08/03 10:27:57;;;;;;;;;;;;;;;;;;4974433;28;8574;-85
2022/08/03 10:30:26;;;;;;;;;;;;;;;;;;4974666;28;7139;-85
2022/08/03 10:33:01;;;;;;;;;;;;;;;;;;4975069;28;6987;-85
2022/08/03 10:35:28;;;;;;;;;;;;;;;;;;4974737;28;7263;-85
2022/08/03 10:37:57;;;;;;;;;;;;;;;;;;4974843;28;8516;-85
2022/08/03 10:40:23;;;;;;;;;;;;;;;;;;4975349;28;8840;-84
2022/08/03 10:42:50;;;;;;;;;;;;;;;;;;4974462;28;8519;-84
2022/08/03 10:45:23;;;;;;;;;;;;;;;;;;4976840;28;8755;-84
2022/08/03 10:47:50;;;;;;;;;;;;;;;;;;4978852;28;8590;-86
2022/08/03 10:50:17;;;;;;;;;;;;;;;;;;4978508;28;8975;-85
2022/08/03 10:52:56;;;;;;;;;;;;;;;;;;4978366;28;7282;-86
2022/08/03 10:58:15;;;;;;;;;;;;;;;;;;4979271;28;6903;-84
2022/08/03 11:00:49;;;;;;;;;;;;;;;;;;4978778;28;8803;-86
2022/08/03 11:03:15;;;;;;;;;;;;;;;;;;4977997;28;8938;-85
2022/08/03 11:05:42;;;;;;;;;;;;;;;;;;4978919;28;8492;-84
2022/08/03 11:08:25;;;;;;;;;;;;;;;;;;4977917;28;7368;-84
2022/08/03 11:10:54;;;;;;;;;;;;;;;;;;4978207;28;8527;-85
2022/08/03 11:13:21;;;;;;;;;;;;;;;;;;4977542;28;7861;-86
2022/08/03 11:15:48;;;;;;;;;;;;;;;;;;4977987;28;8578;-85
2022/08/03 11:18:14;;;;;;;;;;;;;;;;;;4978052;28;8764;-84
2022/08/03 11:20:57;;;;;;;;;;;;;;;;;;4977854;28;8507;-87
2022/08/03 11:23:40;;;;;;;;;;;;;;;;;;4977867;28;7304;-85
2022/08/03 11:26:07;;;;;;;;;;;;;;;;;;4977692;28;8913;-85
2022/08/03 11:28:33;;;;;;;;;;;;;;;;;;4977726;28;8528;-85
2022/08/03 11:31:17;;;;;;;;;;;;;;;;;;4978116;28;8758;-85
2022/08/03 11:34:03;;;;;;;;;;;;;;;;;;4994552;28;7129;-85
2022/08/03 11:36:28;;;;;;;;;;;;;;;;;;4977626;28;7154;-86
2022/08/03 11:39:20;;;;;;;;;;;;;;;;;;4978874;28;7141;-85
2022/08/03 11:41:46;;;;;;;;;;;;;;;;;;4974370;28;8813;-83
2022/08/03 11:44:31;;;;;;;;;;;;;;;;;;4977227;28;8373;-86
2022/08/03 11:46:59;;;;;;;;;;;;;;;;;;4977595;28;8522;-86
2022/08/03 11:49:25;;;;;;;;;;;;;;;;;;4977399;28;8530;-86
2022/08/03 11:51:53;;;;;;;;;;;;;;;;;;4977246;28;7276;-86
2022/08/03 11:54:19;;;;;;;;;;;;;;;;;;4977134;28;8903;-87
2022/08/03 11:56:49;;;;;;;;;;;;;;;;;;4975650;28;7130;-87
2022/08/03 11:59:17;;;;;;;;;;;;;;;;;;4977353;28;7273;-86
2022/08/03 12:01:44;;;;;;;;;;;;;;;;;;4977673;28;7336;-87
2022/08/03 12:04:10;;;;;;;;;;;;;;;;;;4977113;28;8876;-88
2022/08/03 12:06:54;;;;;;;;;;;;;;;;;;4976882;28;8529;-88
2022/08/03 12:09:20;;;;;;;;;;;;;;;;;;4977460;28;7544;-87
2022/08/03 12:11:50;;;;;;;;;;;;;;;;;;4976831;28;7214;-87
2022/08/03 12:14:17;;;;;;;;;;;;;;;;;;4977015;28;7119;-86
2022/08/03 12:16:47;;;;;;;;;;;;;;;;;;4977033;28;7348;-87
2022/08/03 12:19:13;;;;;;;;;;;;;;;;;;4977123;28;9197;-87
2022/08/03 12:21:49;;;;;;;;;;;;;;;;;;4977029;28;8542;-86
2022/08/03 12:24:15;;;;;;;;;;;;;;;;;;4976710;28;7307;-86
2022/08/03 12:26:43;;;;;;;;;;;;;;;;;;4976662;28;8629;-87
2022/08/03 12:29:17;;;;;;;;;;;;;;;;;;4976738;28;7360;-86
2022/08/03 12:31:43;;;;;;;;;;;;;;;;;;4976454;28;9435;-88
2022/08/03 12:34:08;;;;;;;;;;;;;;;;;;4976534;28;8842;-86
2022/08/03 12:36:35;;;;;;;;;;;;;;;;;;4976759;28;8605;-85
2022/08/03 12:39:03;;;;;;;;;;;;;;;;;;4976216;28;7618;-86
2022/08/03 12:41:33;;;;;;;;;;;;;;;;;;4976679;28;8529;-86
2022/08/03 12:43:59;;;;;;;;;;;;;;;;;;4976055;28;7079;-86
2022/08/03 12:46:30;;;;;;;;;;;;;;;;;;4976244;28;8729;-86
2022/08/03 12:49:00;;;;;;;;;;;;;;;;;;4976979;28;7163;-86
2022/08/03 12:51:27;;;;;;;;;;;;;;;;;;4976209;28;7132;-84
2022/08/03 12:53:53;;;;;;;;;;;;;;;;;;4976139;28;7402;-86
2022/08/03 12:56:19;;;;;;;;;;;;;;;;;;4976213;28;8620;-87
2022/08/03 12:58:46;;;;;;;;;;;;;;;;;;4973707;28;7267;-87
2022/08/03 13:01:12;;;;;;;;;;;;;;;;;;4971926;28;7347;-82
2022/08/03 13:03:43;;;;;;;;;;;;;;;;;;4967574;28;7147;-86
2022/08/03 13:06:16;;;;;;;;;;;;;;;;;;4959959;28;8831;-86
2022/08/03 13:08:43;;;;;;;;;;;;;;;;;;4955882;28;8545;-85
2022/08/03 13:11:25;;;;;;;;;;;;;;;;;;4956958;28;7452;-86
2022/08/03 13:13:51;;;;;;;;;;;;;;;;;;4956765;28;8691;-86
2022/08/03 13:16:17;;;;;;;;;;;;;;;;;;4956493;28;8512;-85
2022/08/03 13:18:45;;;;;;;;;;;;;;;;;;4956487;28;7133;-76
2022/08/03 13:21:12;;;;;;;;;;;;;;;;;;4956513;28;8955;-89
2022/08/03 13:23:38;;;;;;;;;;;;;;;;;;4958631;28;8602;-87
2022/08/03 13:26:03;;;;;;;;;;;;;;;;;;4967106;28;8537;-76
2022/08/03 13:28:28;;;;;;;;;;;;;;;;;;4971503;28;8544;-81
2022/08/03 13:30:54;;;;;;;;;;;;;;;;;;4962604;28;8481;-80
2022/08/03 13:33:20;;;;;;;;;;;;;;;;;;4962422;28;8539;-78
2022/08/03 13:35:45;;;;;;;;;;;;;;;;;;4967757;28;9438;-84
2022/08/03 13:38:10;;;;;;;;;;;;;;;;;;4975708;28;7260;-71
2022/08/03 13:40:36;;;;;;;;;;;;;;;;;;4983164;28;8841;-73
2022/08/03 13:43:02;;;;;;;;;;;;;;;;;;4979468;28;7385;-73
2022/08/03 13:45:29;;;;;;;;;;;;;;;;;;4987833;28;6998;-83
2022/08/03 13:47:55;;;;;;;;;;;;;;;;;;4978537;28;7194;-83
2022/08/03 13:50:21;;;;;;;;;;;;;;;;;;4977069;28;8962;-85
2022/08/03 13:52:46;;;;;;;;;;;;;;;;;;4971732;28;7294;-83
2022/08/03 13:55:12;;;;;;;;;;;;;;;;;;4969415;28;8452;-87
2022/08/03 13:57:38;;;;;;;;;;;;;;;;;;4973780;28;8580;-84
2022/08/03 14:00:05;;;;;;;;;;;;;;;;;;4974957;28;8453;-86
2022/08/03 14:02:30;;;;;;;;;;;;;;;;;;4974992;28;8926;-87
2022/08/03 14:04:56;;;;;;;;;;;;;;;;;;4974568;28;8989;-85
2022/08/03 14:07:21;;;;;;;;;;;;;;;;;;4974390;28;8626;-87
2022/08/03 14:09:47;;;;;;;;;;;;;;;;;;4975170;28;8556;-86
2022/08/03 14:12:12;;;;;;;;;;;;;;;;;;4975507;28;7139;-84
2022/08/03 14:14:38;;;;;;;;;;;;;;;;;;4975343;28;7347;-85
2022/08/03 14:17:04;;;;;;;;;;;;;;;;;;4974284;28;8531;-87
2022/08/03 14:19:29;;;;;;;;;;;;;;;;;;4974048;28;8610;-87
2022/08/03 14:21:55;;;;;;;;;;;;;;;;;;4974325;28;8536;-84
2022/08/03 14:24:20;;;;;;;;;;;;;;;;;;4975867;28;8594;-86
2022/08/03 14:26:46;;;;;;;;;;;;;;;;;;4975875;28;7291;-84
2022/08/03 14:29:11;;;;;;;;;;;;;;;;;;4973532;28;8606;-87
2022/08/03 14:31:37;;;;;;;;;;;;;;;;;;4974244;28;8542;-87
2022/08/03 14:34:03;;;;;;;;;;;;;;;;;;4990301;28;7279;-87
2022/08/03 14:36:28;;;;;;;;;;;;;;;;;;4987238;28;8528;-87
2022/08/03 14:38:54;;;;;;;;;;;;;;;;;;4972870;28;6945;-88
2022/08/03 14:41:19;;;;;;;;;;;;;;;;;;4974829;28;9534;-87
2022/08/03 14:43:45;;;;;;;;;;;;;;;;;;4973954;28;8581;-86
2022/08/03 14:46:11;;;;;;;;;;;;;;;;;;4973739;28;8855;-86
2022/08/03 14:48:36;;;;;;;;;;;;;;;;;;4973895;28;8610;-86
2022/08/03 14:51:02;;;;;;;;;;;;;;;;;;4959259;28;8546;-86
2022/08/03 14:53:28;;;;;;;;;;;;;;;;;;4954959;29;8788;-86
2022/08/03 14:55:54;;;;;;;;;;;;;;;;;;4955082;29;8980;-86
2022/08/03 14:58:25;;;;;;;;;;;;;;;;;;4955927;28;8440;-85
2022/08/03 15:00:52;;;;;;;;;;;;;;;;;;4955418;29;7176;-86
2022/08/03 15:03:21;;;;;;;;;;;;;;;;;;4957705;28;7277;-85
2022/08/03 15:05:48;;;;;;;;;;;;;;;;;;4960991;28;8574;-86
2022/08/03 15:08:13;;;;;;;;;;;;;;;;;;4955181;29;7260;-87
2022/08/03 15:10:39;;;;;;;;;;;;;;;;;;4955326;29;7427;-85
2022/08/03 15:13:04;;;;;;;;;;;;;;;;;;4971822;28;8684;-85
2022/08/03 15:15:30;;;;;;;;;;;;;;;;;;4985776;28;8530;-84
2022/08/03 15:17:55;;;;;;;;;;;;;;;;;;4972193;28;8551;-84
2022/08/03 15:20:21;;;;;;;;;;;;;;;;;;4969875;28;8418;-84
2022/08/03 15:22:46;;;;;;;;;;;;;;;;;;4954532;29;8543;-86
2022/08/03 15:25:12;;;;;;;;;;;;;;;;;;4953913;29;8585;-83
2022/08/03 15:27:37;;;;;;;;;;;;;;;;;;4954434;29;7213;-84
2022/08/03 15:30:05;;;;;;;;;;;;;;;;;;4954641;28;8885;-83
2022/08/03 15:32:33;;;;;;;;;;;;;;;;;;4957462;28;8995;-85
2022/08/03 15:34:59;;;;;;;;;;;;;;;;;;4957954;28;8534;-86
2022/08/03 15:37:25;;;;;;;;;;;;;;;;;;4957615;28;8519;-86
2022/08/03 15:39:51;;;;;;;;;;;;;;;;;;4957556;28;8584;-84
2022/08/03 15:42:16;;;;;;;;;;;;;;;;;;4958123;28;8522;-86
2022/08/03 15:44:42;;;;;;;;;;;;;;;;;;4958019;28;7245;-85
2022/08/03 15:47:07;;;;;;;;;;;;;;;;;;4959680;28;8531;-87
2022/08/03 15:49:33;;;;;;;;;;;;;;;;;;4976911;28;8942;-85
2022/08/03 15:51:59;;;;;;;;;;;;;;;;;;4976965;28;7236;-84
2022/08/03 15:54:26;;;;;;;;;;;;;;;;;;4976618;28;7144;-85
2022/08/03 15:56:51;;;;;;;;;;;;;;;;;;4977196;28;7260;-84
2022/08/03 15:59:18;;;;;;;;;;;;;;;;;;4976488;28;7268;-86
2022/08/03 16:01:44;;;;;;;;;;;;;;;;;;4976507;28;8877;-84
2022/08/03 16:04:10;;;;;;;;;;;;;;;;;;4977552;28;7325;-86
2022/08/03 16:06:36;;;;;;;;;;;;;;;;;;4977040;28;8579;-84
2022/08/03 16:09:02;;;;;;;;;;;;;;;;;;4976532;28;8599;-83
2022/08/03 16:11:28;;;;;;;;;;;;;;;;;;4976637;28;8516;-85
2022/08/03 16:13:53;;;;;;;;;;;;;;;;;;4977110;28;8605;-85
2022/08/03 16:16:19;;;;;;;;;;;;;;;;;;4976231;28;8629;-86
2022/08/03 16:18:44;;;;;;;;;;;;;;;;;;4976896;28;8537;-86
2022/08/03 16:21:10;;;;;;;;;;;;;;;;;;4976876;28;8522;-84
2022/08/03 16:23:36;;;;;;;;;;;;;;;;;;4976006;28;7246;-85
2022/08/03 16:26:02;;;;;;;;;;;;;;;;;;4976420;28;7436;-86
2022/08/03 16:28:29;;;;;;;;;;;;;;;;;;4976352;28;7378;-85
2022/08/03 16:30:55;;;;;;;;;;;;;;;;;;4975792;28;9236;-85
2022/08/03 16:33:21;;;;;;;;;;;;;;;;;;4976337;28;8598;-86
2022/08/03 16:35:48;;;;;;;;;;;;;;;;;;4976661;28;8518;-85
2022/08/03 16:38:14;;;;;;;;;;;;;;;;;;4977295;28;7274;-88
2022/08/03 16:40:39;;;;;;;;;;;;;;;;;;4976155;28;8731;-88
2022/08/03 16:43:14;;;;;;;;;;;;;;;;;;4972204;28;8918;-87
2022/08/03 16:45:40;;;;;;;;;;;;;;;;;;4971807;28;8778;-86
2022/08/03 16:48:06;;;;;;;;;;;;;;;;;;4975653;28;8504;-85
2022/08/03 16:50:32;;;;;;;;;;;;;;;;;;4975459;28;7413;-84
2022/08/03 16:52:57;;;;;;;;;;;;;;;;;;4975613;28;8910;-83
2022/08/03 16:55:23;;;;;;;;;;;;;;;;;;4974453;28;7142;-82
2022/08/03 16:57:48;;;;;;;;;;;;;;;;;;4994069;28;7653;-80
2022/08/03 17:00:14;;;;;;;;;;;;;;;;;;4999316;28;6922;-84
2022/08/03 17:02:40;;;;;;;;;;;;;;;;;;4991360;28;7383;-83
2022/08/03 17:05:06;;;;;;;;;;;;;;;;;;4977136;28;7169;-77
2022/08/03 17:07:32;;;;;;;;;;;;;;;;;;4991712;28;7271;-84
2022/08/03 17:09:59;;;;;;;;;;;;;;;;;;4975159;28;8584;-85
2022/08/03 17:12:24;;;;;;;;;;;;;;;;;;4991310;28;7537;-84